Terminal Aerodrome Forecast
Issued by NWS Upton, NY

Home | Current Version | Previous Version | Text Only | Print | Product List | Glossary On
Versions: 1 2 3 4 5 6 7 8 9 10 11 12 13 14 15 16 17 18 19 20 21 22 23 24 25 26 27 28 29 30 31 32 33 34 35 36
000
FTUS41 KOKX 170230 AAA
TAFISP
TAF AMD
KISP 170230Z 1703/1724 35012G19KT P6SM FEW040 SCT250
     FM170600 35007KT P6SM SKC
     FM171100 36009KT P6SM SKC
     FM171800 31006KT P6SM SKC
     FM172100 23005KT P6SM SKC=

USA.gov is the U.S. government's official web portal to all federal, state and local government web resources and services.